Time;durP1;ratioP1;P1;durP2;ratioP2;P2;SDS_P1;SDS_P2;PMS_P1;PMS_P2;Temp;Humidity;BMP_temperature;BMP_pressure;BME280_temperature;BME280_humidity;BME280_pressure;Samples;Min_cycle;Max_cycle;Signal;HPM_P1;HPM_P2
2022/06/16 04:01:11;;;;;;;12.97;3.17;;;12.80;96.30;;;;;;5650154;23;20867;-78
2022/06/16 04:06:20;;;;;;;3.20;2.90;;;13.10;96.30;;;;;;5014604;28;20184;-75
2022/06/16 04:08:46;;;;;;;5.50;3.40;;;13.20;96.30;;;;;;5013037;28;20770;-76
2022/06/16 04:11:27;;;;;;;4.73;3.17;;;13.70;96.30;;;;;;5013513;28;20675;-75
2022/06/16 04:14:07;;;;;;;3.60;3.30;;;14.30;96.30;;;;;;5013566;28;20177;-75
2022/06/16 04:16:41;;;;;;;3.50;3.20;;;14.60;96.30;;;;;;5008448;28;20456;-75
2022/06/16 04:19:09;;;;;;;3.47;3.13;;;14.70;96.30;;;;;;5002741;28;20412;-75
2022/06/16 04:31:56;;;;;;;3.60;2.70;;;18.30;96.30;;;;;;5143387;22;20495;-76
2022/06/16 04:34:21;;;;;;;11.87;3.10;;;18.10;96.30;;;;;;4993557;28;20909;-76
2022/06/16 04:36:47;;;;;;;3.23;2.23;;;17.60;96.30;;;;;;4993454;28;20212;-76
2022/06/16 04:39:13;;;;;;;4.87;2.93;;;17.00;96.30;;;;;;4992159;28;20178;-75
2022/06/16 04:41:38;;;;;;;5.30;3.07;;;16.60;96.30;;;;;;4990010;28;20256;-76
2022/06/16 04:44:04;;;;;;;3.90;2.90;;;16.20;96.30;;;;;;4992978;28;20409;-75
2022/06/16 04:46:31;;;;;;;3.70;2.73;;;16.00;96.30;;;;;;4993348;28;20215;-75
2022/06/16 04:48:57;;;;;;;4.23;2.90;;;15.70;96.30;;;;;;4992561;28;20166;-76
2022/06/16 04:51:22;;;;;;;4.10;3.33;;;15.50;96.30;;;;;;4994752;28;20497;-76
2022/06/16 04:53:48;;;;;;;3.40;3.10;;;15.40;96.30;;;;;;5004081;28;20186;-76
2022/06/16 04:56:13;;;;;;;3.73;3.07;;;15.30;96.30;;;;;;4975308;28;20338;-75
2022/06/16 04:58:39;;;;;;;4.47;2.93;;;15.10;96.30;;;;;;4987990;28;20268;-75
2022/06/16 05:01:05;;;;;;;3.60;3.20;;;15.00;96.30;;;;;;4987488;28;20204;-76
2022/06/16 05:03:30;;;;;;;4.23;3.50;;;14.80;96.30;;;;;;4988864;28;20964;-76
2022/06/16 05:05:56;;;;;;;6.03;3.80;;;14.70;96.30;;;;;;4990806;28;20188;-75
2022/06/16 05:08:23;;;;;;;3.73;2.90;;;14.50;96.30;;;;;;4970749;28;20173;-74
2022/06/16 05:10:49;;;;;;;5.80;3.00;;;14.60;96.30;;;;;;4989328;28;20452;-75
2022/06/16 05:13:16;;;;;;;3.23;2.90;;;14.60;96.30;;;;;;4988937;28;20421;-75
2022/06/16 05:15:42;;;;;;;3.43;3.10;;;14.60;96.30;;;;;;4975996;28;20565;-75
2022/06/16 05:18:08;;;;;;;14.83;3.40;;;14.60;96.30;;;;;;4992091;28;20484;-75
2022/06/16 05:20:34;;;;;;;17.37;3.70;;;14.60;96.30;;;;;;4992782;28;20247;-76
2022/06/16 05:23:00;;;;;;;4.03;3.73;;;14.70;96.30;;;;;;4974950;28;20819;-77
2022/06/16 05:25:25;;;;;;;11.50;3.47;;;14.80;96.30;;;;;;5009143;28;20188;-78
2022/06/16 05:27:51;;;;;;;13.77;3.17;;;15.00;96.30;;;;;;5005308;28;20268;-78
2022/06/16 05:30:16;;;;;;;7.53;3.57;;;15.10;96.30;;;;;;4990579;28;20594;-78
2022/06/16 05:32:42;;;;;;;6.53;3.07;;;15.40;96.30;;;;;;4992546;28;20189;-79
2022/06/16 05:35:09;;;;;;;11.73;3.30;;;15.60;96.30;;;;;;4992287;28;20173;-78
2022/06/16 05:37:34;;;;;;;9.60;3.60;;;16.00;96.30;;;;;;4974779;28;20466;-78
2022/06/16 05:40:00;;;;;;;3.87;3.07;;;16.30;96.30;;;;;;4992443;28;20511;-78
2022/06/16 05:42:25;;;;;;;4.20;2.87;;;16.60;96.30;;;;;;4975017;28;20228;-78
2022/06/16 05:44:51;;;;;;;8.73;3.43;;;17.30;96.30;;;;;;4992670;28;20165;-78
2022/06/16 05:47:16;;;;;;;8.53;3.53;;;18.00;96.30;;;;;;4992478;28;20174;-78
2022/06/16 05:49:42;;;;;;;10.43;3.43;;;18.40;96.30;;;;;;4992430;28;20205;-79
2022/06/16 05:52:11;;;;;;;6.10;3.63;;;17.90;96.30;;;;;;4992343;28;20248;-78
2022/06/16 05:54:37;;;;;;;3.40;2.80;;;18.00;96.30;;;;;;4992406;28;20268;-78
2022/06/16 05:57:03;;;;;;;5.80;3.07;;;18.00;96.30;;;;;;4974916;28;21046;-78
2022/06/16 05:59:29;;;;;;;8.13;3.67;;;18.20;96.30;;;;;;4994357;28;20423;-78
2022/06/16 06:01:55;;;;;;;4.60;3.30;;;18.20;96.30;;;;;;5012037;28;20435;-78
2022/06/16 06:04:21;;;;;;;3.67;3.10;;;17.90;96.30;;;;;;5011959;28;20169;-78
2022/06/16 06:06:47;;;;;;;7.93;2.93;;;17.70;96.30;;;;;;5011901;28;20804;-78
2022/06/16 06:17:25;;;;;;;4.27;2.67;;;18.40;96.30;;;;;;5012626;28;20547;-79
2022/06/16 06:19:52;;;;;;;3.90;2.40;;;19.20;96.30;;;;;;5012753;28;20445;-82
2022/06/16 06:22:23;;;;;;;4.83;2.97;;;19.60;96.30;;;;;;4995178;28;20288;-80
2022/06/16 06:24:54;;;;;;;6.23;3.17;;;19.50;96.30;;;;;;5012578;28;20412;-80
2022/06/16 06:27:37;;;;;;;8.87;3.30;;;19.60;96.30;;;;;;5012625;28;20481;-80
2022/06/16 06:30:06;;;;;;;5.30;3.20;;;19.60;96.30;;;;;;5012061;28;20477;-79
2022/06/16 06:32:32;;;;;;;11.90;3.00;;;19.40;96.30;;;;;;5012818;28;20439;-79
2022/06/16 06:34:58;;;;;;;8.97;3.00;;;19.40;96.30;;;;;;5012086;28;20507;-79
2022/06/16 06:37:26;;;;;;;5.13;3.10;;;19.30;96.30;;;;;;5015464;28;20204;-78
2022/06/16 06:39:52;;;;;;;5.43;2.80;;;19.30;96.30;;;;;;5015599;28;20180;-79
2022/06/16 06:42:18;;;;;;;6.20;3.47;;;19.30;96.30;;;;;;5015030;28;20510;-78
2022/06/16 06:44:44;;;;;;;2.93;2.60;;;19.50;96.30;;;;;;5015069;28;20173;-78
2022/06/16 06:47:23;;;;;;;7.70;2.90;;;19.70;96.30;;;;;;5014838;28;20438;-76
2022/06/16 06:49:49;;;;;;;5.20;2.73;;;19.80;96.30;;;;;;5014877;28;20550;-76
2022/06/16 06:52:15;;;;;;;6.77;3.37;;;20.20;96.30;;;;;;5015018;28;20431;-78
2022/06/16 06:54:43;;;;;;;8.20;3.03;;;20.50;96.30;;;;;;5015609;28;20315;-78
2022/06/16 06:57:14;;;;;;;3.83;2.90;;;20.50;96.30;;;;;;5014630;28;21052;-78
2022/06/16 06:59:40;;;;;;;11.63;3.70;;;20.50;96.30;;;;;;5014753;28;20408;-78
2022/06/16 07:02:05;;;;;;;4.80;2.90;;;20.50;96.30;;;;;;5014845;28;20435;-78
2022/06/16 07:04:31;;;;;;;7.87;3.10;;;20.80;96.30;;;;;;5014736;28;20267;-78
2022/06/16 07:06:56;;;;;;;10.13;3.13;;;21.40;96.30;;;;;;4997290;28;20681;-78
2022/06/16 07:09:22;;;;;;;5.33;2.93;;;22.00;96.30;;;;;;5014557;28;20173;-76
2022/06/16 07:11:48;;;;;;;5.00;3.10;;;22.90;96.30;;;;;;5014412;28;20189;-78
2022/06/16 07:14:14;;;;;;;5.07;3.30;;;24.50;95.50;;;;;;5014780;28;20474;-77
2022/06/16 07:16:40;;;;;;;9.50;2.90;;;25.00;89.40;;;;;;4997007;28;20210;-78
2022/06/16 07:19:06;;;;;;;5.20;2.63;;;25.00;89.20;;;;;;5014543;28;20789;-78
2022/06/16 07:21:31;;;;;;;3.10;2.53;;;25.50;88.00;;;;;;5014798;28;20263;-78
2022/06/16 07:23:57;;;;;;;3.60;2.50;;;25.70;87.60;;;;;;5014913;28;20989;-76
2022/06/16 07:26:23;;;;;;;6.17;2.57;;;26.90;85.70;;;;;;5014519;28;20191;-76
2022/06/16 07:28:49;;;;;;;6.33;2.80;;;26.70;83.80;;;;;;5014859;28;20180;-77
2022/06/16 07:31:15;;;;;;;7.43;2.80;;;26.30;83.10;;;;;;5014107;28;20450;-77
2022/06/16 07:33:40;;;;;;;3.10;2.60;;;26.50;84.90;;;;;;5014634;28;20187;-78
2022/06/16 07:36:07;;;;;;;7.33;2.77;;;26.60;84.50;;;;;;5014538;28;20287;-78
2022/06/16 07:38:33;;;;;;;5.00;2.87;;;26.10;82.50;;;;;;5014244;28;20187;-78
2022/06/16 07:43:42;;;;;;;6.17;3.13;;;26.30;85.40;;;;;;5014063;28;20187;-78
2022/06/16 07:46:08;;;;;;;3.57;2.80;;;27.80;83.00;;;;;;5014060;28;20408;-77
2022/06/16 07:48:34;;;;;;;5.40;2.90;;;28.00;81.50;;;;;;5014063;28;20180;-79
2022/06/16 07:50:59;;;;;;;5.27;2.83;;;29.00;79.10;;;;;;5014169;28;20196;-79
2022/06/16 07:53:25;;;;;;;5.43;2.67;;;29.90;79.40;;;;;;5014120;28;20192;-79
2022/06/16 07:55:50;;;;;;;2.83;2.60;;;29.80;73.10;;;;;;5014106;28;20223;-79
2022/06/16 07:58:16;;;;;;;8.40;3.07;;;29.80;76.00;;;;;;5013587;28;20200;-78
2022/06/16 08:00:41;;;;;;;4.80;2.50;;;29.10;76.10;;;;;;4996849;28;20208;-78
2022/06/16 08:03:07;;;;;;;6.97;2.90;;;28.70;74.80;;;;;;5014213;28;20168;-77
2022/06/16 08:05:32;;;;;;;6.23;3.33;;;27.60;77.20;;;;;;5013966;28;20184;-78
2022/06/16 08:07:58;;;;;;;4.67;2.17;;;26.40;81.20;;;;;;5013912;28;20168;-77
2022/06/16 08:10:27;;;;;;;8.20;2.67;;;24.70;84.40;;;;;;5013817;28;20188;-77
2022/06/16 08:12:53;;;;;;;6.03;2.80;;;24.60;84.70;;;;;;4996093;28;20239;-78
2022/06/16 08:15:20;;;;;;;8.30;3.47;;;24.10;87.20;;;;;;5013777;28;21213;-79
2022/06/16 08:17:48;;;;;;;6.60;3.00;;;24.80;89.00;;;;;;4995708;28;20851;-79
2022/06/16 08:20:15;;;;;;;10.93;3.30;;;25.80;85.30;;;;;;4995882;28;20416;-79
2022/06/16 08:22:42;;;;;;;5.90;2.90;;;26.40;86.10;;;;;;5013345;28;20426;-79
2022/06/16 08:25:10;;;;;;;9.80;3.27;;;27.00;81.50;;;;;;5013713;28;21018;-78
2022/06/16 08:27:37;;;;;;;18.30;3.53;;;28.20;82.30;;;;;;5013204;28;20438;-80
2022/06/16 08:30:08;;;;;;;8.73;3.77;;;29.40;77.30;;;;;;5013706;28;20419;-76
2022/06/16 08:32:33;;;;;;;5.60;3.47;;;29.40;73.80;;;;;;4997279;28;20498;-79
2022/06/16 08:34:59;;;;;;;11.13;3.57;;;29.60;76.20;;;;;;4996348;28;20467;-77
2022/06/16 08:37:25;;;;;;;12.93;3.70;;;29.50;75.00;;;;;;5014101;28;20196;-79
2022/06/16 08:39:51;;;;;;;7.07;3.23;;;28.80;76.90;;;;;;5014775;28;20743;-77
2022/06/16 08:42:35;;;;;;;6.10;3.70;;;27.50;77.90;;;;;;5014785;28;20467;-77
2022/06/16 08:45:21;;;;;;;6.67;3.50;;;27.40;78.60;;;;;;5013135;28;20272;-78
2022/06/16 08:48:12;;;;;;;8.20;3.90;;;26.70;81.30;;;;;;5014509;28;20804;-78
2022/06/16 08:50:45;;;;;;;9.50;3.60;;;27.40;81.20;;;;;;5015066;28;20439;-77
2022/06/16 08:53:33;;;;;;;5.90;3.90;;;28.30;80.60;;;;;;5015301;28;20502;-78
2022/06/16 08:56:29;;;;;;;12.87;3.93;;;28.90;79.30;;;;;;4983147;28;20423;-78
2022/06/16 08:59:12;;;;;;;8.70;3.93;;;28.70;76.10;;;;;;5013556;28;20416;-78
2022/06/16 09:01:50;;;;;;;6.87;3.23;;;28.80;78.50;;;;;;4998728;28;20435;-78
2022/06/16 09:04:27;;;;;;;12.47;4.20;;;29.30;76.20;;;;;;4999907;28;20920;-78
2022/06/16 09:07:14;;;;;;;13.40;3.67;;;29.20;73.90;;;;;;4999190;28;20407;-78
2022/06/16 09:12:38;;;;;;;10.00;3.23;;;30.00;75.20;;;;;;5015927;28;20514;-79
2022/06/16 09:15:31;;;;;;;4.90;3.50;;;29.40;76.80;;;;;;5016866;28;20415;-79
2022/06/16 09:18:07;;;;;;;5.53;3.17;;;28.60;76.90;;;;;;4983943;28;20458;-78
2022/06/16 09:20:50;;;;;;;9.63;3.67;;;28.10;76.00;;;;;;5016310;28;20473;-78
2022/06/16 09:23:49;;;;;;;6.90;3.03;;;27.70;78.20;;;;;;5016343;28;20407;-78
2022/06/16 09:26:20;;;;;;;6.53;3.97;;;28.50;78.50;;;;;;4999718;28;20411;-78
2022/06/16 09:28:53;;;;;;;12.50;4.40;;;28.60;75.20;;;;;;5017235;28;20418;-78
2022/06/16 09:31:27;;;;;;;7.40;3.20;;;28.40;74.60;;;;;;4999734;28;20787;-78
2022/06/16 09:34:02;;;;;;;3.73;3.20;;;28.20;75.90;;;;;;5014745;28;20423;-78
2022/06/16 09:36:34;;;;;;;6.13;3.43;;;27.20;77.40;;;;;;5016483;28;20462;-77
2022/06/16 09:39:07;;;;;;;11.30;3.23;;;26.90;81.70;;;;;;5011066;28;20447;-78
2022/06/16 09:44:54;;;;;;;5.03;2.70;;;28.00;77.50;;;;;;5012778;28;20830;-78
2022/06/16 09:47:25;;;;;;;13.07;2.70;;;28.50;79.50;;;;;;4993274;28;20783;-78
2022/06/16 09:49:58;;;;;;;6.90;3.07;;;28.20;74.80;;;;;;5012973;28;20418;-77
2022/06/16 09:52:34;;;;;;;17.97;3.20;;;27.60;78.10;;;;;;5013664;28;20505;-77
2022/06/16 09:55:15;;;;;;;6.70;3.17;;;27.40;76.50;;;;;;5013684;28;20513;-78
2022/06/16 09:57:48;;;;;;;10.67;3.37;;;27.50;78.30;;;;;;5011451;28;20529;-78
2022/06/16 10:00:18;;;;;;;7.63;3.23;;;27.80;76.20;;;;;;5013795;28;20499;-77
2022/06/16 10:02:56;;;;;;;3.63;3.00;;;27.40;77.70;;;;;;5013649;28;20413;-78
2022/06/16 10:05:29;;;;;;;7.73;3.23;;;26.70;76.30;;;;;;5013743;28;20423;-78
2022/06/16 10:08:01;;;;;;;8.80;3.13;;;26.20;78.70;;;;;;4994474;28;20938;-77
2022/06/16 10:10:34;;;;;;;3.83;3.13;;;26.50;81.60;;;;;;5014989;28;20427;-78
2022/06/16 10:13:15;;;;;;;6.50;3.00;;;26.50;79.90;;;;;;4999426;28;20827;-79
2022/06/16 10:15:54;;;;;;;6.47;3.40;;;26.90;77.90;;;;;;5020388;28;20407;-77
2022/06/16 10:18:21;;;;;;;11.80;3.53;;;26.90;78.70;;;;;;5011343;28;20467;-77
2022/06/16 10:28:38;;;;;;;4.40;2.70;;;27.00;76.30;;;;;;5061175;22;20498;-79
2022/06/16 10:31:06;;;;;;;7.73;2.90;;;26.50;77.50;;;;;;4993807;28;20582;-80
2022/06/16 10:33:37;;;;;;;10.90;2.90;;;26.60;76.90;;;;;;4995156;28;20408;-80
2022/06/16 10:36:12;;;;;;;6.40;3.60;;;26.40;78.70;;;;;;4995919;28;20408;-80
2022/06/16 10:38:46;;;;;;;11.90;3.00;;;25.30;79.30;;;;;;4995451;28;20463;-79
2022/06/16 10:41:29;;;;;;;7.13;3.10;;;25.00;85.10;;;;;;4995512;28;20508;-78
2022/06/16 10:43:58;;;;;;;10.43;3.70;;;25.20;78.60;;;;;;4978469;28;20816;-78
2022/06/16 10:46:30;;;;;;;11.30;3.43;;;25.50;82.20;;;;;;4978154;28;20422;-78
2022/06/16 10:49:00;;;;;;;5.73;2.23;;;25.30;78.70;;;;;;4995034;28;20412;-78
2022/06/16 10:51:28;;;;;;;11.43;2.97;;;25.00;80.10;;;;;;4995403;28;20455;-78
2022/06/16 10:54:22;;;;;;;6.43;3.17;;;25.80;81.90;;;;;;4995276;28;20412;-79
2022/06/16 10:56:48;;;;;;;6.20;3.37;;;26.30;78.10;;;;;;4978027;28;21037;-78
2022/06/16 10:59:14;;;;;;;8.90;3.53;;;26.60;77.60;;;;;;4995002;28;20417;-79
2022/06/16 11:01:56;;;;;;;8.03;2.77;;;26.60;75.50;;;;;;4992256;28;20440;-79
2022/06/16 11:04:25;;;;;;;6.33;2.63;;;27.10;77.40;;;;;;4976937;28;20177;-79
2022/06/16 11:06:53;;;;;;;4.83;3.40;;;26.70;77.50;;;;;;4994797;28;20495;-78
2022/06/16 11:09:21;;;;;;;6.73;2.70;;;27.60;80.50;;;;;;4993156;28;20813;-78
2022/06/16 11:11:53;;;;;;;8.63;3.17;;;28.50;77.70;;;;;;4977739;28;21002;-77
2022/06/16 11:14:28;;;;;;;4.30;3.10;;;29.00;78.20;;;;;;4993703;28;20431;-79
2022/06/16 11:16:55;;;;;;;23.53;4.00;;;28.80;74.10;;;;;;4974727;28;20595;-79
2022/06/16 11:19:47;;;;;;;13.53;3.10;;;28.30;76.30;;;;;;4976819;28;20427;-78
2022/06/16 11:22:40;;;;;;;2.40;2.13;;;28.80;73.60;;;;;;4994261;28;20421;-79
2022/06/16 11:25:12;;;;;;;14.37;2.30;;;29.40;75.10;;;;;;4977375;28;20428;-78
2022/06/16 11:27:46;;;;;;;7.40;2.13;;;29.70;72.50;;;;;;4976557;28;20442;-78
2022/06/16 11:30:33;;;;;;;4.47;2.50;;;29.60;72.10;;;;;;4994887;28;20432;-79
2022/06/16 11:32:59;;;;;;;5.70;2.17;;;29.30;70.70;;;;;;4995255;28;20405;-80
2022/06/16 11:35:43;;;;;;;3.67;2.40;;;28.80;68.00;;;;;;4994784;28;20503;-78
2022/06/16 11:38:21;;;;;;;2.63;2.40;;;28.10;74.20;;;;;;4980459;28;20444;-79
2022/06/16 11:40:57;;;;;;;10.27;2.50;;;28.00;73.10;;;;;;5013002;28;20436;-79
2022/06/16 11:43:28;;;;;;;4.23;2.00;;;27.90;77.10;;;;;;5009565;28;20741;-78
2022/06/16 11:46:10;;;;;;;9.60;2.87;;;27.10;76.80;;;;;;4995693;28;20401;-77
2022/06/16 11:49:01;;;;;;;9.20;2.70;;;27.10;77.50;;;;;;4990665;28;20432;-77
2022/06/16 11:52:06;;;;;;;10.90;3.07;;;27.60;76.90;;;;;;4994445;28;20820;-78
2022/06/16 11:54:57;;;;;;;5.33;2.50;;;27.60;78.10;;;;;;4925958;28;20417;-77
2022/06/16 11:57:50;;;;;;;9.67;3.27;;;27.60;76.20;;;;;;4985157;28;20470;-78
2022/06/16 12:00:25;;;;;;;4.07;2.73;;;26.60;78.10;;;;;;4994527;28;20401;-77
2022/06/16 12:03:11;;;;;;;9.80;3.27;;;26.60;78.00;;;;;;4993975;28;20404;-77
2022/06/16 12:06:06;;;;;;;8.80;2.80;;;26.00;78.80;;;;;;4959667;28;20428;-77
2022/06/16 12:09:08;;;;;;;7.60;3.63;;;24.70;83.00;;;;;;4971425;28;20503;-79
2022/06/16 12:11:55;;;;;;;15.27;3.07;;;24.10;85.70;;;;;;4977395;28;20984;-77
2022/06/16 12:14:29;;;;;;;9.20;4.03;;;23.60;85.30;;;;;;4992773;28;20409;-76
2022/06/16 12:17:16;;;;;;;5.50;4.00;;;23.60;85.30;;;;;;4993857;28;20472;-76
2022/06/16 12:20:04;;;;;;;10.53;4.20;;;23.40;86.90;;;;;;4993025;28;20904;-79
2022/06/16 12:23:13;;;;;;;4.87;3.40;;;23.30;89.50;;;;;;4991998;28;20794;-78
2022/06/16 12:25:52;;;;;;;11.93;3.80;;;23.30;88.90;;;;;;4980955;28;20421;-80
2022/06/16 12:28:43;;;;;;;8.00;3.80;;;24.10;88.50;;;;;;4983993;28;20440;-78
2022/06/16 12:31:37;;;;;;;7.77;4.30;;;24.90;84.90;;;;;;4991189;28;20498;-78
2022/06/16 12:34:11;;;;;;;10.17;3.60;;;25.50;83.70;;;;;;4989194;28;20428;-78
2022/06/16 12:36:43;;;;;;;6.40;4.10;;;25.50;83.30;;;;;;4992309;28;20499;-79
2022/06/16 12:39:28;;;;;;;5.80;3.60;;;25.60;83.20;;;;;;4994030;28;20629;-78
2022/06/16 12:41:59;;;;;;;7.20;2.93;;;25.70;81.10;;;;;;4994430;28;20421;-77
2022/06/16 12:44:37;;;;;;;5.60;2.97;;;26.20;83.50;;;;;;4994569;28;20412;-79
2022/06/16 12:47:12;;;;;;;5.23;3.53;;;26.10;80.10;;;;;;4995228;28;20762;-78
2022/06/16 12:50:02;;;;;;;7.67;3.50;;;25.50;81.80;;;;;;4994595;28;20877;-79
2022/06/16 12:52:52;;;;;;;7.80;3.00;;;25.80;81.50;;;;;;4977184;28;20940;-79
2022/06/16 12:55:41;;;;;;;5.53;2.77;;;25.80;82.80;;;;;;4995594;28;20425;-79
2022/06/16 12:58:40;;;;;;;9.57;2.90;;;25.90;77.80;;;;;;4994350;28;20444;-79
2022/06/16 13:01:08;;;;;;;6.83;2.20;;;25.90;78.70;;;;;;4994782;28;20436;-79
2022/06/16 13:03:45;;;;;;;3.33;1.70;;;26.50;76.00;;;;;;4997072;28;20408;-79
2022/06/16 13:06:12;;;;;;;6.70;2.33;;;27.10;75.40;;;;;;4998822;28;20412;-79
2022/06/16 13:08:43;;;;;;;6.97;2.60;;;27.60;73.80;;;;;;4999251;28;20443;-79
2022/06/16 13:11:15;;;;;;;8.60;2.20;;;27.60;72.60;;;;;;4982113;28;20436;-79
2022/06/16 13:13:45;;;;;;;6.83;1.93;;;27.50;72.20;;;;;;4998925;28;20420;-79
2022/06/16 13:16:16;;;;;;;13.27;2.60;;;27.60;74.40;;;;;;4998892;28;20904;-79
2022/06/16 13:18:45;;;;;;;3.67;2.27;;;27.50;72.90;;;;;;4980695;28;20428;-79
2022/06/16 13:21:20;;;;;;;6.03;2.50;;;26.90;73.20;;;;;;4997787;28;20439;-79
2022/06/16 13:23:49;;;;;;;8.30;2.30;;;27.00;75.10;;;;;;4979418;28;20424;-79
2022/06/16 13:26:17;;;;;;;10.53;2.60;;;26.90;75.50;;;;;;4980047;28;20776;-79
2022/06/16 13:29:09;;;;;;;6.80;2.37;;;27.10;75.30;;;;;;4962713;28;20437;-79
2022/06/16 13:31:43;;;;;;;11.30;2.60;;;27.20;74.90;;;;;;4971639;28;20440;-79
2022/06/16 13:34:14;;;;;;;13.20;2.97;;;27.30;75.40;;;;;;4977830;28;20806;-79
2022/06/16 13:36:46;;;;;;;10.20;2.50;;;27.00;74.50;;;;;;4990368;28;20484;-79
2022/06/16 13:39:50;;;;;;;7.93;3.07;;;26.90;75.80;;;;;;4991792;28;20459;-79
2022/06/16 13:42:20;;;;;;;7.53;2.53;;;27.30;76.30;;;;;;4974990;28;20436;-79
2022/06/16 13:45:21;;;;;;;6.00;2.30;;;27.30;74.10;;;;;;4993512;28;20443;-79
2022/06/16 13:48:12;;;;;;;4.47;2.37;;;26.50;74.60;;;;;;4977158;28;20421;-79
2022/06/16 13:50:56;;;;;;;5.00;2.50;;;26.60;74.70;;;;;;4977487;28;20909;-79
2022/06/16 13:53:25;;;;;;;5.07;2.33;;;26.30;75.10;;;;;;4981980;28;20493;-79
2022/06/16 13:56:05;;;;;;;7.97;2.27;;;26.30;76.10;;;;;;4989490;28;20424;-78
2022/06/16 13:58:37;;;;;;;12.33;2.27;;;26.30;74.70;;;;;;4997141;28;20539;-79
2022/06/16 14:01:05;;;;;;;5.93;2.53;;;25.60;76.40;;;;;;4996433;28;20432;-77
2022/06/16 14:03:33;;;;;;;19.57;2.77;;;25.60;77.60;;;;;;4996268;28;20418;-77
2022/06/16 14:06:08;;;;;;;5.53;2.30;;;25.60;76.20;;;;;;4989746;28;20511;-78
2022/06/16 14:08:46;;;;;;;14.53;2.70;;;26.10;75.20;;;;;;4996080;28;20431;-78
2022/06/16 14:11:16;;;;;;;5.57;2.50;;;26.10;74.70;;;;;;4994906;28;20432;-78
2022/06/16 14:14:05;;;;;;;4.07;2.20;;;26.50;76.60;;;;;;4993411;28;20467;-78
2022/06/16 14:16:35;;;;;;;2.50;1.87;;;26.80;76.00;;;;;;4996252;28;20775;-78
2022/06/16 14:19:01;;;;;;;13.60;2.23;;;26.90;73.40;;;;;;4995793;28;20487;-78
2022/06/16 14:21:47;;;;;;;7.07;1.90;;;26.80;71.60;;;;;;4996002;28;20440;-78
2022/06/16 14:24:41;;;;;;;9.53;2.17;;;26.70;73.40;;;;;;4996149;28;20265;-78
2022/06/16 14:27:14;;;;;;;10.53;2.20;;;26.40;72.80;;;;;;4996175;28;20580;-78
2022/06/16 14:29:40;;;;;;;4.20;2.00;;;25.90;74.60;;;;;;4995467;28;20432;-77
2022/06/16 14:32:16;;;;;;;5.87;2.30;;;25.60;74.10;;;;;;4995453;28;20988;-78
2022/06/16 14:35:00;;;;;;;6.47;2.30;;;25.40;75.80;;;;;;4993536;28;20427;-78
2022/06/16 14:38:10;;;;;;;3.57;2.00;;;25.60;77.00;;;;;;4993724;28;20547;-78
2022/06/16 14:40:51;;;;;;;5.73;2.77;;;25.40;76.20;;;;;;4992240;28;20434;-77
2022/06/16 14:43:31;;;;;;;4.37;1.70;;;25.40;75.80;;;;;;4991143;28;20428;-78
2022/06/16 14:46:35;;;;;;;5.40;2.10;;;25.60;76.30;;;;;;4992451;28;20435;-78
2022/06/16 14:49:05;;;;;;;10.20;2.57;;;25.60;74.50;;;;;;4951000;28;20428;-78
2022/06/16 14:51:36;;;;;;;2.97;1.90;;;25.20;77.50;;;;;;4982540;28;20567;-78
2022/06/16 14:54:08;;;;;;;6.47;2.60;;;25.20;77.30;;;;;;4995484;28;20464;-78
2022/06/16 14:56:52;;;;;;;8.57;1.93;;;25.40;75.70;;;;;;4976569;28;20428;-78
2022/06/16 14:59:19;;;;;;;7.73;2.30;;;25.80;77.70;;;;;;4995048;28;20904;-79
2022/06/16 15:01:48;;;;;;;9.30;3.43;;;26.30;76.80;;;;;;4995166;28;20486;-78
2022/06/16 15:04:17;;;;;;;3.10;1.70;;;26.40;76.70;;;;;;4995056;28;20838;-78
2022/06/16 15:06:47;;;;;;;7.30;2.50;;;25.90;74.20;;;;;;4995074;28;20420;-78
2022/06/16 15:09:19;;;;;;;7.63;2.63;;;25.50;75.50;;;;;;4994708;28;20420;-77
2022/06/16 15:11:45;;;;;;;6.40;2.77;;;24.60;77.30;;;;;;4977473;28;20962;-77
2022/06/16 15:14:14;;;;;;;6.90;2.40;;;23.80;80.00;;;;;;4995155;28;20412;-77
2022/06/16 15:19:32;;;;;;;4.73;2.70;;;23.70;82.60;;;;;;4975478;28;20421;-77
2022/06/16 15:21:59;;;;;;;14.33;2.53;;;24.00;80.80;;;;;;4975484;28;20465;-77
2022/06/16 15:24:42;;;;;;;6.00;2.27;;;24.10;82.30;;;;;;4993283;28;20417;-75
2022/06/16 15:27:09;;;;;;;5.07;3.03;;;24.10;78.90;;;;;;4993011;28;20433;-78
2022/06/16 15:29:46;;;;;;;7.40;2.70;;;24.20;80.70;;;;;;4994027;28;20459;-78
2022/06/16 15:38:04;;;;;;;7.50;2.10;;;24.40;79.30;;;;;;4993766;28;20876;-77
2022/06/16 15:40:32;;;;;;;7.73;2.30;;;24.90;80.90;;;;;;4994897;28;20421;-78
2022/06/16 15:42:58;;;;;;;4.40;2.20;;;24.90;80.90;;;;;;4994047;28;20405;-78
2022/06/16 15:45:24;;;;;;;10.03;2.50;;;24.90;77.90;;;;;;4993909;28;20479;-78
2022/06/16 15:47:49;;;;;;;4.17;2.40;;;24.90;77.50;;;;;;4993770;28;20236;-78
2022/06/16 15:50:20;;;;;;;5.90;2.10;;;25.20;75.40;;;;;;4976670;28;20181;-79
2022/06/16 15:52:50;;;;;;;8.13;2.20;;;25.20;75.30;;;;;;4993777;28;20173;-79
2022/06/16 15:55:21;;;;;;;6.60;2.03;;;25.70;75.80;;;;;;4993544;28;20413;-79
2022/06/16 15:57:47;;;;;;;4.43;2.20;;;25.70;74.30;;;;;;4980008;28;20467;-79
2022/06/16 16:00:18;;;;;;;5.33;1.73;;;25.40;72.70;;;;;;4994976;28;20424;-80
2022/06/16 16:02:46;;;;;;;6.60;1.93;;;25.30;73.00;;;;;;4994049;28;20260;-78
2022/06/16 16:05:15;;;;;;;18.97;2.10;;;25.20;73.50;;;;;;4993343;28;20912;-79
2022/06/16 16:07:41;;;;;;;4.67;2.30;;;25.20;74.60;;;;;;4993671;28;20432;-80
2022/06/16 16:10:12;;;;;;;3.67;2.20;;;25.20;74.50;;;;;;4976892;28;20428;-79
2022/06/16 16:12:38;;;;;;;8.23;1.87;;;25.20;72.80;;;;;;4993688;28;20431;-79
2022/06/16 16:15:03;;;;;;;3.37;2.17;;;25.00;73.40;;;;;;4976602;28;20958;-79
2022/06/16 16:17:44;;;;;;;3.13;2.20;;;24.90;73.80;;;;;;4975490;28;20649;-77
2022/06/16 16:20:25;;;;;;;7.57;2.80;;;24.90;72.80;;;;;;4992256;28;20185;-77
2022/06/16 16:23:06;;;;;;;3.10;1.80;;;24.90;74.10;;;;;;4993821;28;21008;-78
2022/06/16 16:25:33;;;;;;;4.10;1.97;;;25.00;72.80;;;;;;4992239;28;20415;-77
2022/06/16 16:27:59;;;;;;;6.83;1.67;;;24.50;71.50;;;;;;4975525;28;20523;-77
2022/06/16 16:30:26;;;;;;;6.77;1.93;;;24.30;72.90;;;;;;4993122;28;20432;-77
2022/06/16 16:32:52;;;;;;;3.40;1.67;;;24.10;73.20;;;;;;4993509;28;20824;-76
2022/06/16 16:35:21;;;;;;;6.17;2.40;;;23.70;73.40;;;;;;4993652;28;20448;-76
2022/06/16 16:37:47;;;;;;;7.90;1.73;;;23.40;76.40;;;;;;4993654;28;20197;-75
2022/06/16 16:43:00;;;;;;;4.20;2.23;;;23.40;76.40;;;;;;4993571;28;20937;-74
2022/06/16 16:43:12;;;;;;;3.27;1.90;;;23.60;75.80;;;;;;4993496;28;20390;-77
2022/06/16 16:45:46;;;;;;;2.33;1.43;;;23.70;75.50;;;;;;4975950;28;20408;-77
2022/06/16 16:48:14;;;;;;;8.17;1.87;;;23.70;75.30;;;;;;4991981;28;20572;-78
2022/06/16 16:50:42;;;;;;;9.73;2.13;;;23.40;75.40;;;;;;4993440;28;20465;-77
2022/06/16 16:53:12;;;;;;;2.30;1.70;;;23.30;76.60;;;;;;4981950;28;20428;-79
2022/06/16 16:55:38;;;;;;;2.90;1.70;;;23.40;75.40;;;;;;4974223;28;20424;-77
2022/06/16 16:58:05;;;;;;;6.50;2.40;;;23.30;74.50;;;;;;4990073;28;20480;-77
2022/06/16 17:00:33;;;;;;;3.67;1.70;;;23.30;76.20;;;;;;4994174;28;20253;-77
2022/06/16 17:02:59;;;;;;;5.37;1.73;;;23.30;74.80;;;;;;4993166;28;20487;-75
2022/06/16 17:05:24;;;;;;;2.93;1.50;;;23.40;75.90;;;;;;4993072;28;20416;-76
2022/06/16 17:07:50;;;;;;;3.80;1.93;;;23.50;74.10;;;;;;4992629;28;20181;-78
2022/06/16 17:10:15;;;;;;;7.77;1.90;;;23.50;74.60;;;;;;4993102;28;20526;-76
2022/06/16 17:12:43;;;;;;;5.70;1.93;;;23.40;73.70;;;;;;4992913;28;20177;-75
2022/06/16 17:15:15;;;;;;;3.03;2.10;;;23.30;73.80;;;;;;4991418;28;20185;-76
2022/06/16 17:17:41;;;;;;;11.80;1.90;;;23.20;73.60;;;;;;4974358;28;20599;-76
2022/06/16 17:20:07;;;;;;;6.30;1.80;;;23.20;74.50;;;;;;4992129;28;20936;-76
2022/06/16 17:22:33;;;;;;;2.77;1.63;;;23.10;73.60;;;;;;4992670;28;20193;-75
2022/06/16 17:24:59;;;;;;;4.23;2.10;;;22.70;74.40;;;;;;4992736;28;20415;-76
2022/06/16 17:27:25;;;;;;;4.50;1.90;;;22.60;75.90;;;;;;4992581;28;20192;-76
2022/06/16 17:29:50;;;;;;;4.50;1.90;;;22.40;75.60;;;;;;4992764;28;20420;-75
2022/06/16 17:32:19;;;;;;;5.07;2.23;;;22.40;76.00;;;;;;4992528;28;20193;-75
2022/06/16 17:34:49;;;;;;;5.43;1.50;;;22.30;75.10;;;;;;4992795;28;20637;-75
2022/06/16 17:37:25;;;;;;;5.30;2.00;;;22.20;75.80;;;;;;4975059;28;20545;-77
2022/06/16 17:39:57;;;;;;;2.63;1.73;;;22.10;78.30;;;;;;4992669;28;20503;-76
2022/06/16 17:42:22;;;;;;;5.77;1.60;;;22.10;77.10;;;;;;4992540;28;20433;-75
2022/06/16 17:44:48;;;;;;;5.00;1.57;;;22.00;76.70;;;;;;4992685;28;20774;-76
2022/06/16 17:47:14;;;;;;;4.33;2.00;;;22.00;77.20;;;;;;4975266;28;20174;-75
2022/06/16 17:49:41;;;;;;;2.93;1.70;;;21.90;77.50;;;;;;4991936;28;20471;-75
2022/06/16 19:37:44;;;;;;;4.27;1.73;;;17.90;89.00;;;;;;4922755;29;20467;-77
2022/06/16 19:40:13;;;;;;;2.67;1.60;;;17.60;90.00;;;;;;4915275;29;20928;-76
2022/06/16 19:42:43;;;;;;;2.80;1.33;;;17.40;90.80;;;;;;4914335;29;20931;-75
2022/06/16 19:50:54;;;;;;;4.63;1.47;;;17.00;92.50;;;;;;4955542;28;20477;-76